sensor_id;sensor_type;location;lat;lon;timestamp;temperature;humidity
24744;DHT22;12844;52.110;5.548;2023-09-07T00:01:26;25.80;61.90
24744;DHT22;12844;52.110;5.548;2023-09-07T00:03:52;25.80;61.90
24744;DHT22;12844;52.110;5.548;2023-09-07T00:06:17;25.80;61.90
24744;DHT22;12844;52.110;5.548;2023-09-07T00:08:44;25.80;61.90
24744;DHT22;12844;52.110;5.548;2023-09-07T00:11:09;25.80;61.90
24744;DHT22;12844;52.110;5.548;2023-09-07T00:13:36;25.80;61.90
24744;DHT22;12844;52.110;5.548;2023-09-07T00:16:03;25.80;61.80
24744;DHT22;12844;52.110;5.548;2023-09-07T00:18:30;25.80;61.70
24744;DHT22;12844;52.110;5.548;2023-09-07T00:20:56;25.80;61.80
24744;DHT22;12844;52.110;5.548;2023-09-07T00:23:21;25.80;61.80
24744;DHT22;12844;52.110;5.548;2023-09-07T00:25:47;25.80;61.80
24744;DHT22;12844;52.110;5.548;2023-09-07T00:28:13;25.80;61.80
24744;DHT22;12844;52.110;5.548;2023-09-07T00:30:38;25.80;61.80
24744;DHT22;12844;52.110;5.548;2023-09-07T00:33:04;25.80;61.90
24744;DHT22;12844;52.110;5.548;2023-09-07T00:35:30;25.80;61.90
24744;DHT22;12844;52.110;5.548;2023-09-07T00:37:56;25.80;61.90
24744;DHT22;12844;52.110;5.548;2023-09-07T00:40:22;25.80;61.80
24744;DHT22;12844;52.110;5.548;2023-09-07T00:42:47;25.70;61.80
24744;DHT22;12844;52.110;5.548;2023-09-07T00:45:13;25.70;61.70
24744;DHT22;12844;52.110;5.548;2023-09-07T00:47:39;25.80;61.90
24744;DHT22;12844;52.110;5.548;2023-09-07T00:50:05;25.70;61.70
24744;DHT22;12844;52.110;5.548;2023-09-07T00:52:32;25.70;61.80
24744;DHT22;12844;52.110;5.548;2023-09-07T00:54:58;25.70;61.70
24744;DHT22;12844;52.110;5.548;2023-09-07T00:57:24;25.70;61.70
24744;DHT22;12844;52.110;5.548;2023-09-07T00:59:50;25.70;61.70
24744;DHT22;12844;52.110;5.548;2023-09-07T01:02:15;25.70;61.70
24744;DHT22;12844;52.110;5.548;2023-09-07T01:04:41;25.80;61.90
24744;DHT22;12844;52.110;5.548;2023-09-07T01:07:35;25.80;61.80
24744;DHT22;12844;52.110;5.548;2023-09-07T01:10:02;25.70;61.70
24744;DHT22;12844;52.110;5.548;2023-09-07T01:12:28;25.70;61.80
24744;DHT22;12844;52.110;5.548;2023-09-07T01:14:53;25.70;61.70
24744;DHT22;12844;52.110;5.548;2023-09-07T01:17:20;25.70;61.70
24744;DHT22;12844;52.110;5.548;2023-09-07T01:19:48;25.70;61.80
24744;DHT22;12844;52.110;5.548;2023-09-07T01:22:17;25.70;61.70
24744;DHT22;12844;52.110;5.548;2023-09-07T01:24:43;25.70;61.70
24744;DHT22;12844;52.110;5.548;2023-09-07T01:27:10;25.70;61.70
24744;DHT22;12844;52.110;5.548;2023-09-07T01:29:38;25.70;61.80
24744;DHT22;12844;52.110;5.548;2023-09-07T01:32:04;25.70;61.70
24744;DHT22;12844;52.110;5.548;2023-09-07T01:34:30;25.70;61.70
24744;DHT22;12844;52.110;5.548;2023-09-07T01:36:56;25.70;61.70
24744;DHT22;12844;52.110;5.548;2023-09-07T01:39:22;25.70;62.40
24744;DHT22;12844;52.110;5.548;2023-09-07T01:41:47;25.70;61.70
24744;DHT22;12844;52.110;5.548;2023-09-07T01:44:13;25.70;61.70
24744;DHT22;12844;52.110;5.548;2023-09-07T01:46:38;25.70;61.60
24744;DHT22;12844;52.110;5.548;2023-09-07T01:49:04;25.60;61.60
24744;DHT22;12844;52.110;5.548;2023-09-07T01:51:29;25.70;61.70
24744;DHT22;12844;52.110;5.548;2023-09-07T01:53:55;25.60;61.50
24744;DHT22;12844;52.110;5.548;2023-09-07T01:56:21;25.60;61.50
24744;DHT22;12844;52.110;5.548;2023-09-07T01:58:46;25.60;61.50
24744;DHT22;12844;52.110;5.548;2023-09-07T02:01:25;25.60;61.50
24744;DHT22;12844;52.110;5.548;2023-09-07T02:03:51;25.70;61.60
24744;DHT22;12844;52.110;5.548;2023-09-07T02:06:17;25.60;61.50
24744;DHT22;12844;52.110;5.548;2023-09-07T02:08:43;25.60;61.50
24744;DHT22;12844;52.110;5.548;2023-09-07T02:11:09;25.60;61.50
24744;DHT22;12844;52.110;5.548;2023-09-07T02:13:34;25.60;61.50
24744;DHT22;12844;52.110;5.548;2023-09-07T02:16:04;25.60;61.50
24744;DHT22;12844;52.110;5.548;2023-09-07T02:18:31;25.60;61.40
24744;DHT22;12844;52.110;5.548;2023-09-07T02:21:01;25.60;61.50
24744;DHT22;12844;52.110;5.548;2023-09-07T02:23:27;25.60;61.40
24744;DHT22;12844;52.110;5.548;2023-09-07T02:25:53;25.60;61.40
24744;DHT22;12844;52.110;5.548;2023-09-07T02:28:18;25.60;61.40
24744;DHT22;12844;52.110;5.548;2023-09-07T02:30:44;25.60;61.40
24744;DHT22;12844;52.110;5.548;2023-09-07T02:33:09;25.60;61.40
24744;DHT22;12844;52.110;5.548;2023-09-07T02:35:37;25.60;61.40
24744;DHT22;12844;52.110;5.548;2023-09-07T02:38:02;25.60;61.40
24744;DHT22;12844;52.110;5.548;2023-09-07T02:40:28;25.60;61.40
24744;DHT22;12844;52.110;5.548;2023-09-07T02:42:54;25.60;61.40
24744;DHT22;12844;52.110;5.548;2023-09-07T02:45:19;25.60;61.40
24744;DHT22;12844;52.110;5.548;2023-09-07T02:47:44;25.60;61.30
24744;DHT22;12844;52.110;5.548;2023-09-07T02:50:12;25.60;61.30
24744;DHT22;12844;52.110;5.548;2023-09-07T02:52:39;25.60;61.30
24744;DHT22;12844;52.110;5.548;2023-09-07T02:55:05;25.60;61.30
24744;DHT22;12844;52.110;5.548;2023-09-07T02:57:31;25.60;61.30
24744;DHT22;12844;52.110;5.548;2023-09-07T02:59:57;25.60;61.30
24744;DHT22;12844;52.110;5.548;2023-09-07T03:02:22;25.60;61.30
24744;DHT22;12844;52.110;5.548;2023-09-07T03:04:52;25.60;61.20
24744;DHT22;12844;52.110;5.548;2023-09-07T03:07:18;25.60;61.30
24744;DHT22;12844;52.110;5.548;2023-09-07T03:09:43;25.60;62.00
24744;DHT22;12844;52.110;5.548;2023-09-07T03:12:09;25.60;61.20
24744;DHT22;12844;52.110;5.548;2023-09-07T03:14:35;25.60;61.20
24744;DHT22;12844;52.110;5.548;2023-09-07T03:17:01;25.60;61.20
24744;DHT22;12844;52.110;5.548;2023-09-07T03:19:26;25.60;61.20
24744;DHT22;12844;52.110;5.548;2023-09-07T03:21:52;25.50;61.10
24744;DHT22;12844;52.110;5.548;2023-09-07T03:24:19;25.50;61.10
24744;DHT22;12844;52.110;5.548;2023-09-07T03:26:45;25.60;61.20
24744;DHT22;12844;52.110;5.548;2023-09-07T03:29:11;25.50;61.10
24744;DHT22;12844;52.110;5.548;2023-09-07T03:31:36;25.50;61.10
24744;DHT22;12844;52.110;5.548;2023-09-07T03:34:02;25.50;61.00
24744;DHT22;12844;52.110;5.548;2023-09-07T03:36:28;25.50;61.00
24744;DHT22;12844;52.110;5.548;2023-09-07T03:38:53;25.50;61.00
24744;DHT22;12844;52.110;5.548;2023-09-07T03:41:19;25.50;61.00
24744;DHT22;12844;52.110;5.548;2023-09-07T03:43:44;25.50;61.00
24744;DHT22;12844;52.110;5.548;2023-09-07T03:46:10;25.50;61.00
24744;DHT22;12844;52.110;5.548;2023-09-07T03:48:36;25.50;61.00
24744;DHT22;12844;52.110;5.548;2023-09-07T03:51:05;25.50;61.00
24744;DHT22;12844;52.110;5.548;2023-09-07T03:53:31;25.50;61.00
24744;DHT22;12844;52.110;5.548;2023-09-07T03:55:57;25.50;61.00
24744;DHT22;12844;52.110;5.548;2023-09-07T03:58:22;25.50;60.90
24744;DHT22;12844;52.110;5.548;2023-09-07T04:00:48;25.50;60.90
24744;DHT22;12844;52.110;5.548;2023-09-07T04:03:13;25.50;60.90
24744;DHT22;12844;52.110;5.548;2023-09-07T04:05:40;25.50;60.90
24744;DHT22;12844;52.110;5.548;2023-09-07T04:08:05;25.50;60.90
24744;DHT22;12844;52.110;5.548;2023-09-07T04:10:31;25.50;60.80
24744;DHT22;12844;52.110;5.548;2023-09-07T04:12:57;25.50;60.80
24744;DHT22;12844;52.110;5.548;2023-09-07T04:15:22;25.50;60.80
24744;DHT22;12844;52.110;5.548;2023-09-07T04:17:50;25.50;60.90
24744;DHT22;12844;52.110;5.548;2023-09-07T04:20:15;25.50;60.80
24744;DHT22;12844;52.110;5.548;2023-09-07T04:22:41;25.50;60.80
24744;DHT22;12844;52.110;5.548;2023-09-07T04:25:07;25.50;60.80
24744;DHT22;12844;52.110;5.548;2023-09-07T04:27:32;25.40;61.50
24744;DHT22;12844;52.110;5.548;2023-09-07T04:29:58;25.40;60.70
24744;DHT22;12844;52.110;5.548;2023-09-07T04:32:23;25.40;60.70
24744;DHT22;12844;52.110;5.548;2023-09-07T04:34:54;25.40;60.70
24744;DHT22;12844;52.110;5.548;2023-09-07T04:37:20;25.40;60.60
24744;DHT22;12844;52.110;5.548;2023-09-07T04:39:45;25.40;60.70
24744;DHT22;12844;52.110;5.548;2023-09-07T04:42:12;25.40;60.60
24744;DHT22;12844;52.110;5.548;2023-09-07T04:44:38;25.40;60.70
24744;DHT22;12844;52.110;5.548;2023-09-07T04:47:03;25.40;60.60
24744;DHT22;12844;52.110;5.548;2023-09-07T04:49:30;25.40;60.60
24744;DHT22;12844;52.110;5.548;2023-09-07T04:51:56;25.40;60.60
24744;DHT22;12844;52.110;5.548;2023-09-07T04:54:22;25.40;60.60
24744;DHT22;12844;52.110;5.548;2023-09-07T04:56:47;25.40;60.50
24744;DHT22;12844;52.110;5.548;2023-09-07T04:59:13;25.40;60.50
24744;DHT22;12844;52.110;5.548;2023-09-07T05:01:39;25.40;60.50
24744;DHT22;12844;52.110;5.548;2023-09-07T05:04:05;25.40;60.50
24744;DHT22;12844;52.110;5.548;2023-09-07T05:06:30;25.40;60.50
24744;DHT22;12844;52.110;5.548;2023-09-07T05:08:56;25.40;60.50
24744;DHT22;12844;52.110;5.548;2023-09-07T05:11:21;25.40;60.50
24744;DHT22;12844;52.110;5.548;2023-09-07T05:13:47;25.40;60.50
24744;DHT22;12844;52.110;5.548;2023-09-07T05:16:12;25.40;60.40
24744;DHT22;12844;52.110;5.548;2023-09-07T05:18:40;25.40;60.50
24744;DHT22;12844;52.110;5.548;2023-09-07T05:21:13;25.40;60.60
24744;DHT22;12844;52.110;5.548;2023-09-07T05:23:39;25.40;60.50
24744;DHT22;12844;52.110;5.548;2023-09-07T05:26:05;25.40;60.50
24744;DHT22;12844;52.110;5.548;2023-09-07T05:28:30;25.40;60.50
24744;DHT22;12844;52.110;5.548;2023-09-07T05:30:56;25.40;60.40
24744;DHT22;12844;52.110;5.548;2023-09-07T05:33:21;25.40;60.40
24744;DHT22;12844;52.110;5.548;2023-09-07T05:35:47;25.40;60.40
24744;DHT22;12844;52.110;5.548;2023-09-07T05:38:13;25.40;60.30
24744;DHT22;12844;52.110;5.548;2023-09-07T05:40:43;25.40;60.30
24744;DHT22;12844;52.110;5.548;2023-09-07T05:43:10;25.40;60.30
24744;DHT22;12844;52.110;5.548;2023-09-07T05:45:38;25.30;60.20
24744;DHT22;12844;52.110;5.548;2023-09-07T05:48:04;25.30;60.20
24744;DHT22;12844;52.110;5.548;2023-09-07T05:50:30;25.30;60.20
24744;DHT22;12844;52.110;5.548;2023-09-07T05:52:55;25.30;60.10
24744;DHT22;12844;52.110;5.548;2023-09-07T05:55:21;25.30;60.10
24744;DHT22;12844;52.110;5.548;2023-09-07T05:57:48;25.30;60.10
24744;DHT22;12844;52.110;5.548;2023-09-07T06:00:14;25.30;60.10
24744;DHT22;12844;52.110;5.548;2023-09-07T06:02:42;25.30;60.10
24744;DHT22;12844;52.110;5.548;2023-09-07T06:05:08;25.30;60.10
24744;DHT22;12844;52.110;5.548;2023-09-07T06:07:34;25.30;60.10
24744;DHT22;12844;52.110;5.548;2023-09-07T06:09:59;25.30;60.10
24744;DHT22;12844;52.110;5.548;2023-09-07T06:12:25;25.30;60.00
24744;DHT22;12844;52.110;5.548;2023-09-07T06:14:50;25.30;60.00
24744;DHT22;12844;52.110;5.548;2023-09-07T06:17:16;25.30;60.00
24744;DHT22;12844;52.110;5.548;2023-09-07T06:19:41;25.30;60.00
24744;DHT22;12844;52.110;5.548;2023-09-07T06:22:08;25.30;60.00
24744;DHT22;12844;52.110;5.548;2023-09-07T06:24:33;25.30;60.00
24744;DHT22;12844;52.110;5.548;2023-09-07T06:26:59;25.30;60.00
24744;DHT22;12844;52.110;5.548;2023-09-07T06:29:24;25.30;60.00
24744;DHT22;12844;52.110;5.548;2023-09-07T06:31:50;25.30;60.00
24744;DHT22;12844;52.110;5.548;2023-09-07T06:34:16;25.30;60.00
24744;DHT22;12844;52.110;5.548;2023-09-07T06:36:41;25.30;60.00
24744;DHT22;12844;52.110;5.548;2023-09-07T06:39:07;25.30;60.00
24744;DHT22;12844;52.110;5.548;2023-09-07T06:41:33;25.30;60.00
24744;DHT22;12844;52.110;5.548;2023-09-07T06:43:58;25.30;60.00
24744;DHT22;12844;52.110;5.548;2023-09-07T06:46:24;25.30;60.00
24744;DHT22;12844;52.110;5.548;2023-09-07T06:48:49;25.30;60.00
24744;DHT22;12844;52.110;5.548;2023-09-07T06:51:15;25.30;60.70
24744;DHT22;12844;52.110;5.548;2023-09-07T06:53:40;25.30;60.00
24744;DHT22;12844;52.110;5.548;2023-09-07T06:56:06;25.30;60.00
24744;DHT22;12844;52.110;5.548;2023-09-07T06:58:32;25.30;60.00
24744;DHT22;12844;52.110;5.548;2023-09-07T07:01:00;25.30;60.00
24744;DHT22;12844;52.110;5.548;2023-09-07T07:03:29;25.30;59.90
24744;DHT22;12844;52.110;5.548;2023-09-07T07:05:56;25.20;59.90
24744;DHT22;12844;52.110;5.548;2023-09-07T07:08:22;25.30;60.00
24744;DHT22;12844;52.110;5.548;2023-09-07T07:10:48;25.30;60.00
24744;DHT22;12844;52.110;5.548;2023-09-07T07:13:13;25.20;60.10
24744;DHT22;12844;52.110;5.548;2023-09-07T07:15:39;25.30;60.10
24744;DHT22;12844;52.110;5.548;2023-09-07T07:18:04;25.30;60.00
24744;DHT22;12844;52.110;5.548;2023-09-07T07:20:35;25.30;60.00
24744;DHT22;12844;52.110;5.548;2023-09-07T07:23:00;25.30;59.90
24744;DHT22;12844;52.110;5.548;2023-09-07T07:25:25;25.30;59.80
24744;DHT22;12844;52.110;5.548;2023-09-07T07:27:51;25.30;59.80
24744;DHT22;12844;52.110;5.548;2023-09-07T07:30:17;25.30;59.80
24744;DHT22;12844;52.110;5.548;2023-09-07T07:32:42;25.30;59.90
24744;DHT22;12844;52.110;5.548;2023-09-07T07:35:08;25.30;59.90
24744;DHT22;12844;52.110;5.548;2023-09-07T07:37:33;25.30;59.90
24744;DHT22;12844;52.110;5.548;2023-09-07T07:39:59;25.30;59.80
24744;DHT22;12844;52.110;5.548;2023-09-07T07:42:24;25.40;60.00
24744;DHT22;12844;52.110;5.548;2023-09-07T07:44:50;25.40;59.90
24744;DHT22;12844;52.110;5.548;2023-09-07T07:47:15;25.40;59.80
24744;DHT22;12844;52.110;5.548;2023-09-07T07:49:41;25.50;59.70
24744;DHT22;12844;52.110;5.548;2023-09-07T07:52:07;25.50;59.60
24744;DHT22;12844;52.110;5.548;2023-09-07T07:54:33;25.60;59.60
24744;DHT22;12844;52.110;5.548;2023-09-07T07:56:59;25.60;59.50
24744;DHT22;12844;52.110;5.548;2023-09-07T07:59:24;25.60;59.50
24744;DHT22;12844;52.110;5.548;2023-09-07T08:01:50;25.70;59.60
24744;DHT22;12844;52.110;5.548;2023-09-07T08:04:15;25.70;59.60
24744;DHT22;12844;52.110;5.548;2023-09-07T08:06:41;25.70;59.60
24744;DHT22;12844;52.110;5.548;2023-09-07T08:09:06;25.80;59.60
24744;DHT22;12844;52.110;5.548;2023-09-07T08:11:33;25.80;59.60
24744;DHT22;12844;52.110;5.548;2023-09-07T08:13:59;25.80;59.60
24744;DHT22;12844;52.110;5.548;2023-09-07T08:16:25;25.80;59.60
24744;DHT22;12844;52.110;5.548;2023-09-07T08:18:51;25.80;59.60
24744;DHT22;12844;52.110;5.548;2023-09-07T08:21:17;25.80;59.70
24744;DHT22;12844;52.110;5.548;2023-09-07T08:23:43;25.80;59.70
24744;DHT22;12844;52.110;5.548;2023-09-07T08:26:08;25.80;59.80
24744;DHT22;12844;52.110;5.548;2023-09-07T08:28:35;25.80;59.60
24744;DHT22;12844;52.110;5.548;2023-09-07T08:31:00;25.90;59.70
24744;DHT22;12844;52.110;5.548;2023-09-07T08:33:26;25.90;59.80
24744;DHT22;12844;52.110;5.548;2023-09-07T08:35:56;25.90;59.80
24744;DHT22;12844;52.110;5.548;2023-09-07T08:38:22;25.90;59.80
24744;DHT22;12844;52.110;5.548;2023-09-07T08:40:56;26.00;59.90
24744;DHT22;12844;52.110;5.548;2023-09-07T08:43:28;26.00;59.90
24744;DHT22;12844;52.110;5.548;2023-09-07T08:46:13;26.00;59.90
24744;DHT22;12844;52.110;5.548;2023-09-07T08:48:39;26.00;59.90
24744;DHT22;12844;52.110;5.548;2023-09-07T08:51:07;26.00;59.90
24744;DHT22;12844;52.110;5.548;2023-09-07T08:53:35;26.00;59.90
24744;DHT22;12844;52.110;5.548;2023-09-07T08:56:02;26.00;59.90
24744;DHT22;12844;52.110;5.548;2023-09-07T08:58:28;26.00;59.90
24744;DHT22;12844;52.110;5.548;2023-09-07T09:00:54;26.00;59.90
24744;DHT22;12844;52.110;5.548;2023-09-07T09:03:23;26.10;60.00
24744;DHT22;12844;52.110;5.548;2023-09-07T09:05:50;26.10;59.90
24744;DHT22;12844;52.110;5.548;2023-09-07T09:08:16;26.10;59.90
24744;DHT22;12844;52.110;5.548;2023-09-07T09:10:45;26.20;60.00
24744;DHT22;12844;52.110;5.548;2023-09-07T09:13:11;26.20;59.90
24744;DHT22;12844;52.110;5.548;2023-09-07T09:15:37;26.20;59.80
24744;DHT22;12844;52.110;5.548;2023-09-07T09:18:10;26.20;59.80
24744;DHT22;12844;52.110;5.548;2023-09-07T09:20:37;26.20;59.70
24744;DHT22;12844;52.110;5.548;2023-09-07T09:23:03;26.30;59.80
24744;DHT22;12844;52.110;5.548;2023-09-07T09:25:31;26.30;59.80
24744;DHT22;12844;52.110;5.548;2023-09-07T09:27:57;26.30;59.80
24744;DHT22;12844;52.110;5.548;2023-09-07T09:30:22;26.30;59.80
24744;DHT22;12844;52.110;5.548;2023-09-07T09:32:48;26.40;59.70
24744;DHT22;12844;52.110;5.548;2023-09-07T09:35:17;26.40;59.60
24744;DHT22;12844;52.110;5.548;2023-09-07T09:37:47;26.40;59.60
24744;DHT22;12844;52.110;5.548;2023-09-07T09:40:14;26.50;59.60
24744;DHT22;12844;52.110;5.548;2023-09-07T09:42:43;26.50;59.50
24744;DHT22;12844;52.110;5.548;2023-09-07T09:45:10;26.50;59.50
24744;DHT22;12844;52.110;5.548;2023-09-07T09:47:42;26.50;59.40
24744;DHT22;12844;52.110;5.548;2023-09-07T09:50:09;26.60;59.40
24744;DHT22;12844;52.110;5.548;2023-09-07T09:52:36;26.60;59.50
24744;DHT22;12844;52.110;5.548;2023-09-07T09:55:06;26.60;59.40
24744;DHT22;12844;52.110;5.548;2023-09-07T09:57:36;26.70;59.50
24744;DHT22;12844;52.110;5.548;2023-09-07T10:00:05;26.60;59.40
24744;DHT22;12844;52.110;5.548;2023-09-07T10:03:46;26.60;60.00
24744;DHT22;12844;52.110;5.548;2023-09-07T10:05:40;26.60;60.00
24744;DHT22;12844;52.110;5.548;2023-09-07T10:08:12;26.60;59.60
24744;DHT22;12844;52.110;5.548;2023-09-07T10:10:40;26.60;59.50
24744;DHT22;12844;52.110;5.548;2023-09-07T10:13:06;26.70;59.50
24744;DHT22;12844;52.110;5.548;2023-09-07T10:15:32;26.70;59.10
24744;DHT22;12844;52.110;5.548;2023-09-07T10:18:17;26.70;59.10
24744;DHT22;12844;52.110;5.548;2023-09-07T10:20:54;26.70;59.10
24744;DHT22;12844;52.110;5.548;2023-09-07T19:11:14;22.50;80.10
24744;DHT22;12844;52.110;5.548;2023-09-07T19:13:40;22.70;81.20
24744;DHT22;12844;52.110;5.548;2023-09-07T19:16:10;23.30;78.70
24744;DHT22;12844;52.110;5.548;2023-09-07T19:18:37;24.00;76.10
24744;DHT22;12844;52.110;5.548;2023-09-07T19:21:03;24.60;73.80
24744;DHT22;12844;52.110;5.548;2023-09-07T19:23:28;25.00;71.90
24744;DHT22;12844;52.110;5.548;2023-09-07T19:25:54;25.40;70.40
24744;DHT22;12844;52.110;5.548;2023-09-07T19:28:19;25.60;69.20
24744;DHT22;12844;52.110;5.548;2023-09-07T19:30:45;25.80;68.10
24744;DHT22;12844;52.110;5.548;2023-09-07T19:33:11;25.90;67.10
24744;DHT22;12844;52.110;5.548;2023-09-07T19:35:36;26.00;66.50
24744;DHT22;12844;52.110;5.548;2023-09-07T19:38:02;26.10;66.40
24744;DHT22;12844;52.110;5.548;2023-09-07T19:40:27;26.20;66.20
24744;DHT22;12844;52.110;5.548;2023-09-07T19:42:53;26.30;66.10
24744;DHT22;12844;52.110;5.548;2023-09-07T19:45:19;26.30;65.90
24744;DHT22;12844;52.110;5.548;2023-09-07T19:47:45;26.30;65.70
24744;DHT22;12844;52.110;5.548;2023-09-07T19:50:11;26.40;65.60
24744;DHT22;12844;52.110;5.548;2023-09-07T19:52:36;26.40;65.40
24744;DHT22;12844;52.110;5.548;2023-09-07T19:55:02;26.50;65.20
24744;DHT22;12844;52.110;5.548;2023-09-07T19:57:28;26.50;65.20
24744;DHT22;12844;52.110;5.548;2023-09-07T19:59:54;26.50;65.20
24744;DHT22;12844;52.110;5.548;2023-09-07T20:02:19;26.50;65.20
24744;DHT22;12844;52.110;5.548;2023-09-07T20:04:45;26.50;65.20
24744;DHT22;12844;52.110;5.548;2023-09-07T20:07:11;26.50;65.20
24744;DHT22;12844;52.110;5.548;2023-09-07T20:09:37;26.50;65.20
24744;DHT22;12844;52.110;5.548;2023-09-07T20:12:03;26.50;64.90
24744;DHT22;12844;52.110;5.548;2023-09-07T20:14:28;26.60;65.10
24744;DHT22;12844;52.110;5.548;2023-09-07T20:16:54;26.60;64.90
24744;DHT22;12844;52.110;5.548;2023-09-07T20:19:19;26.60;64.90
24744;DHT22;12844;52.110;5.548;2023-09-07T20:21:45;26.50;64.50
24744;DHT22;12844;52.110;5.548;2023-09-07T20:24:10;26.50;64.20
24744;DHT22;12844;52.110;5.548;2023-09-07T20:26:36;26.50;64.00
24744;DHT22;12844;52.110;5.548;2023-09-07T20:29:02;26.60;64.50
24744;DHT22;12844;52.110;5.548;2023-09-07T20:31:29;26.50;64.00
24744;DHT22;12844;52.110;5.548;2023-09-07T20:33:55;26.60;64.00
24744;DHT22;12844;52.110;5.548;2023-09-07T20:36:21;26.50;63.80
24744;DHT22;12844;52.110;5.548;2023-09-07T20:38:46;26.60;63.90
24744;DHT22;12844;52.110;5.548;2023-09-07T20:41:12;26.50;63.70
24744;DHT22;12844;52.110;5.548;2023-09-07T20:43:40;26.50;63.60
24744;DHT22;12844;52.110;5.548;2023-09-07T20:46:05;26.60;63.50
24744;DHT22;12844;52.110;5.548;2023-09-07T20:48:31;26.50;63.60
24744;DHT22;12844;52.110;5.548;2023-09-07T20:50:57;26.50;63.60
24744;DHT22;12844;52.110;5.548;2023-09-07T20:53:23;26.50;63.60
24744;DHT22;12844;52.110;5.548;2023-09-07T20:55:49;26.50;63.60
24744;DHT22;12844;52.110;5.548;2023-09-07T20:58:14;26.50;63.60
24744;DHT22;12844;52.110;5.548;2023-09-07T21:00:40;26.50;63.60
24744;DHT22;12844;52.110;5.548;2023-09-07T21:03:06;26.50;63.50
24744;DHT22;12844;52.110;5.548;2023-09-07T21:05:32;26.50;63.50
24744;DHT22;12844;52.110;5.548;2023-09-07T21:07:57;26.60;63.60
24744;DHT22;12844;52.110;5.548;2023-09-07T21:10:23;26.50;63.50
24744;DHT22;12844;52.110;5.548;2023-09-07T21:12:49;26.50;63.50
24744;DHT22;12844;52.110;5.548;2023-09-07T21:15:14;26.50;63.40
24744;DHT22;12844;52.110;5.548;2023-09-07T21:17:44;26.50;63.40
24744;DHT22;12844;52.110;5.548;2023-09-07T21:20:10;26.50;63.40
24744;DHT22;12844;52.110;5.548;2023-09-07T21:22:39;26.50;63.40
24744;DHT22;12844;52.110;5.548;2023-09-07T21:25:06;26.50;63.50
24744;DHT22;12844;52.110;5.548;2023-09-07T21:27:31;26.50;63.50
24744;DHT22;12844;52.110;5.548;2023-09-07T21:29:57;26.50;63.40
24744;DHT22;12844;52.110;5.548;2023-09-07T21:32:22;26.50;63.40
24744;DHT22;12844;52.110;5.548;2023-09-07T21:34:48;26.50;63.40
24744;DHT22;12844;52.110;5.548;2023-09-07T21:37:13;26.50;63.40
24744;DHT22;12844;52.110;5.548;2023-09-07T21:39:39;26.50;63.40
24744;DHT22;12844;52.110;5.548;2023-09-07T21:42:04;26.50;63.40
24744;DHT22;12844;52.110;5.548;2023-09-07T21:44:30;26.50;63.30
24744;DHT22;12844;52.110;5.548;2023-09-07T21:46:56;26.50;63.40
24744;DHT22;12844;52.110;5.548;2023-09-07T21:49:21;26.50;63.30
24744;DHT22;12844;52.110;5.548;2023-09-07T21:51:48;26.50;63.30
24744;DHT22;12844;52.110;5.548;2023-09-07T21:54:13;26.50;63.30
24744;DHT22;12844;52.110;5.548;2023-09-07T21:56:40;26.50;63.20
24744;DHT22;12844;52.110;5.548;2023-09-07T21:59:06;26.50;63.20
24744;DHT22;12844;52.110;5.548;2023-09-07T22:01:33;26.50;63.20
24744;DHT22;12844;52.110;5.548;2023-09-07T22:03:59;26.50;63.20
24744;DHT22;12844;52.110;5.548;2023-09-07T22:06:25;26.50;63.20
24744;DHT22;12844;52.110;5.548;2023-09-07T22:08:50;26.50;63.20
24744;DHT22;12844;52.110;5.548;2023-09-07T22:11:16;26.50;63.20
24744;DHT22;12844;52.110;5.548;2023-09-07T22:13:42;26.50;63.10
24744;DHT22;12844;52.110;5.548;2023-09-07T22:16:08;26.50;63.10
24744;DHT22;12844;52.110;5.548;2023-09-07T22:18:34;26.50;63.10
24744;DHT22;12844;52.110;5.548;2023-09-07T22:21:00;26.50;63.10
24744;DHT22;12844;52.110;5.548;2023-09-07T22:23:26;26.50;63.10
24744;DHT22;12844;52.110;5.548;2023-09-07T22:25:51;26.50;63.10
24744;DHT22;12844;52.110;5.548;2023-09-07T22:28:17;26.50;63.10
24744;DHT22;12844;52.110;5.548;2023-09-07T22:30:42;26.50;63.10
24744;DHT22;12844;52.110;5.548;2023-09-07T22:33:09;26.50;63.10
24744;DHT22;12844;52.110;5.548;2023-09-07T22:35:34;26.50;63.10
24744;DHT22;12844;52.110;5.548;2023-09-07T22:38:00;26.50;63.10
24744;DHT22;12844;52.110;5.548;2023-09-07T22:40:27;26.50;63.00
24744;DHT22;12844;52.110;5.548;2023-09-07T22:42:53;26.50;63.00
24744;DHT22;12844;52.110;5.548;2023-09-07T22:45:18;26.40;62.90
24744;DHT22;12844;52.110;5.548;2023-09-07T22:47:44;26.50;63.00
24744;DHT22;12844;52.110;5.548;2023-09-07T22:50:09;26.50;63.00
24744;DHT22;12844;52.110;5.548;2023-09-07T22:52:36;26.50;63.00
24744;DHT22;12844;52.110;5.548;2023-09-07T22:55:06;26.50;63.00
24744;DHT22;12844;52.110;5.548;2023-09-07T22:57:33;26.50;63.00
24744;DHT22;12844;52.110;5.548;2023-09-07T22:59:59;26.50;62.90
24744;DHT22;12844;52.110;5.548;2023-09-07T23:02:25;26.50;62.90
24744;DHT22;12844;52.110;5.548;2023-09-07T23:04:53;26.40;62.80
24744;DHT22;12844;52.110;5.548;2023-09-07T23:07:18;26.50;63.00
24744;DHT22;12844;52.110;5.548;2023-09-07T23:09:44;26.50;63.00
24744;DHT22;12844;52.110;5.548;2023-09-07T23:12:11;26.40;62.80
24744;DHT22;12844;52.110;5.548;2023-09-07T23:14:38;26.40;62.80
24744;DHT22;12844;52.110;5.548;2023-09-07T23:17:03;26.40;62.80
24744;DHT22;12844;52.110;5.548;2023-09-07T23:19:29;26.40;62.80
24744;DHT22;12844;52.110;5.548;2023-09-07T23:21:55;26.40;62.80
24744;DHT22;12844;52.110;5.548;2023-09-07T23:24:20;26.40;62.70
24744;DHT22;12844;52.110;5.548;2023-09-07T23:26:46;26.40;62.70
24744;DHT22;12844;52.110;5.548;2023-09-07T23:29:12;26.40;62.70
24744;DHT22;12844;52.110;5.548;2023-09-07T23:31:37;26.40;62.60
24744;DHT22;12844;52.110;5.548;2023-09-07T23:34:05;26.40;62.70
24744;DHT22;12844;52.110;5.548;2023-09-07T23:36:30;26.40;62.70
24744;DHT22;12844;52.110;5.548;2023-09-07T23:38:56;26.40;62.60
24744;DHT22;12844;52.110;5.548;2023-09-07T23:41:21;26.40;62.60
24744;DHT22;12844;52.110;5.548;2023-09-07T23:43:47;26.40;62.60
24744;DHT22;12844;52.110;5.548;2023-09-07T23:46:13;26.40;62.60
24744;DHT22;12844;52.110;5.548;2023-09-07T23:48:38;26.40;62.60
24744;DHT22;12844;52.110;5.548;2023-09-07T23:51:04;26.40;62.60
24744;DHT22;12844;52.110;5.548;2023-09-07T23:53:29;26.40;62.60
24744;DHT22;12844;52.110;5.548;2023-09-07T23:55:54;26.40;62.50
24744;DHT22;12844;52.110;5.548;2023-09-07T23:58:20;26.40;62.60
